createdAt,value
2018-09-09T00:01:57.863Z,21.48
2018-09-09T00:04:26.842Z,21.46
2018-09-09T00:06:55.864Z,21.29
2018-09-09T00:09:29.869Z,21.28
2018-09-09T00:11:58.920Z,21.33
2018-09-09T00:14:27.874Z,21.35
2018-09-09T00:16:56.788Z,21.33
2018-09-09T00:19:25.723Z,21.40
2018-09-09T00:21:54.733Z,21.45
2018-09-09T00:24:23.732Z,21.47
2018-09-09T00:26:52.716Z,21.39
2018-09-09T00:29:21.693Z,21.44
2018-09-09T00:31:50.604Z,21.51
2018-09-09T00:34:19.521Z,20.97
2018-09-09T00:36:48.543Z,20.85
2018-09-09T00:39:17.454Z,21.20
2018-09-09T00:41:46.558Z,20.98
2018-09-09T00:44:15.522Z,20.79
2018-09-09T00:46:44.635Z,21.11
2018-09-09T00:49:18.706Z,21.17
2018-09-09T00:51:52.747Z,21.13
2018-09-09T00:54:21.713Z,20.50
2018-09-09T00:56:50.672Z,20.78
2018-09-09T00:59:19.596Z,20.88
2018-09-09T01:01:48.551Z,20.03
2018-09-09T01:04:17.468Z,20.28
2018-09-09T01:06:46.485Z,20.65
2018-09-09T01:09:16.296Z,20.40
2018-09-09T01:11:45.195Z,20.14
2018-09-09T01:14:14.083Z,20.62
2018-09-09T01:16:43.019Z,20.78
2018-09-09T01:19:11.994Z,20.40
2018-09-09T01:21:40.960Z,20.89
2018-09-09T01:24:09.889Z,20.62
2018-09-09T01:26:38.896Z,20.56
2018-09-09T01:29:07.835Z,20.89
2018-09-09T01:31:36.752Z,21.08
2018-09-09T01:34:05.671Z,21.14
2018-09-09T01:36:34.637Z,21.16
2018-09-09T01:39:03.728Z,21.19
2018-09-09T01:41:32.637Z,21.11
2018-09-09T01:44:01.520Z,21.12
2018-09-09T01:46:30.437Z,21.12
2018-09-09T01:48:59.403Z,21.07
2018-09-09T01:51:28.396Z,21.08
2018-09-09T01:53:57.306Z,21.13
2018-09-09T01:56:26.360Z,21.08
2018-09-09T01:58:55.278Z,21.03
2018-09-09T02:01:24.280Z,21.00
2018-09-09T02:03:53.255Z,21.00
2018-09-09T02:06:22.206Z,21.00
2018-09-09T02:08:51.153Z,21.01
2018-09-09T02:11:20.094Z,20.98
2018-09-09T02:13:49.027Z,20.98
2018-09-09T02:16:17.939Z,20.98
2018-09-09T02:18:46.916Z,20.94
2018-09-09T02:21:15.883Z,20.90
2018-09-09T02:23:44.855Z,20.83
2018-09-09T02:26:13.859Z,20.72
2018-09-09T02:28:42.756Z,20.65
2018-09-09T02:31:11.764Z,20.55
2018-09-09T02:36:08.517Z,20.41
2018-09-09T02:38:37.449Z,20.21
2018-09-09T02:41:06.661Z,20.35
2018-09-09T02:43:35.646Z,20.45
2018-09-09T02:46:04.560Z,20.43
2018-09-09T02:48:33.489Z,20.38
2018-09-09T02:51:02.404Z,20.40
2018-09-09T02:53:31.444Z,20.35
2018-09-09T02:56:00.456Z,20.29
2018-09-09T02:58:29.380Z,20.24
2018-09-09T03:00:58.322Z,20.11
2018-09-09T03:03:27.244Z,20.10
2018-09-09T03:05:56.236Z,20.14
2018-09-09T03:08:25.222Z,20.20
2018-09-09T03:10:59.235Z,19.50
2018-09-09T03:13:28.153Z,19.44
2018-09-09T03:15:57.052Z,19.83
2018-09-09T03:18:26.098Z,19.09
2018-09-09T03:20:55.008Z,18.55
2018-09-09T03:23:23.933Z,18.60
2018-09-09T03:25:52.844Z,18.50
2018-09-09T03:28:21.895Z,18.90
2018-09-09T03:30:50.797Z,19.27
2018-09-09T03:33:19.761Z,19.51
2018-09-09T03:35:48.676Z,19.63
2018-09-09T03:38:17.780Z,19.70
2018-09-09T03:40:46.841Z,19.73
2018-09-09T03:43:15.813Z,19.68
2018-09-09T03:45:44.844Z,19.67
2018-09-09T03:48:13.820Z,19.71
2018-09-09T03:50:42.724Z,19.76
2018-09-09T03:53:11.640Z,19.66
2018-09-09T03:55:40.540Z,19.61
2018-09-09T03:58:09.525Z,19.63
2018-09-09T04:00:38.561Z,19.60
2018-09-09T04:03:07.982Z,19.52
2018-09-09T04:05:36.997Z,19.45
2018-09-09T04:08:06.099Z,19.48
2018-09-09T04:10:35.052Z,19.53
2018-09-09T04:13:03.991Z,19.45
2018-09-09T04:15:32.945Z,19.56
2018-09-09T04:18:01.916Z,19.54
2018-09-09T04:20:30.949Z,19.58
2018-09-09T04:22:59.860Z,19.67
2018-09-09T04:25:28.824Z,19.70
2018-09-09T04:27:57.817Z,19.70
2018-09-09T04:30:26.798Z,19.73
2018-09-09T04:32:55.840Z,19.80
2018-09-09T04:35:24.752Z,19.84
2018-09-09T04:37:53.802Z,19.86
2018-09-09T04:40:22.736Z,19.87
2018-09-09T04:42:51.667Z,19.93
2018-09-09T04:45:20.821Z,19.95
2018-09-09T04:47:49.880Z,20.02
2018-09-09T04:50:18.872Z,19.59
2018-09-09T04:52:47.779Z,19.48
2018-09-09T04:55:16.767Z,18.93
2018-09-09T04:57:45.657Z,19.10
2018-09-09T05:00:14.623Z,19.08
2018-09-09T05:02:43.569Z,19.01
2018-09-09T05:05:12.504Z,19.34
2018-09-09T05:07:41.431Z,19.20
2018-09-09T05:10:10.371Z,19.43
2018-09-09T05:12:39.460Z,19.04
2018-09-09T05:15:08.432Z,18.73
2018-09-09T05:17:37.336Z,18.78
2018-09-09T05:20:06.307Z,18.70
2018-09-09T05:22:35.313Z,19.02
2018-09-09T05:25:04.306Z,19.25
2018-09-09T05:27:33.225Z,19.38
2018-09-09T05:30:02.216Z,19.79
2018-09-09T05:32:31.120Z,19.41
2018-09-09T05:35:00.092Z,19.44
2018-09-09T05:37:29.017Z,19.63
2018-09-09T05:39:57.945Z,19.93
2018-09-09T05:42:26.977Z,20.00
2018-09-09T05:44:56.046Z,19.81
2018-09-09T05:47:25.081Z,19.93
2018-09-09T05:49:54.304Z,20.12
2018-09-09T05:52:23.252Z,20.55
2018-09-09T05:54:52.258Z,20.33
2018-09-09T05:57:21.182Z,20.65
2018-09-09T05:59:50.127Z,20.84
2018-09-09T06:02:19.093Z,20.88
2018-09-09T06:04:48.080Z,21.07
2018-09-09T06:07:17.052Z,21.40
2018-09-09T06:09:45.960Z,21.36
2018-09-09T06:12:14.960Z,20.43
2018-09-09T06:14:43.892Z,20.72
2018-09-09T06:17:12.936Z,20.81
2018-09-09T06:19:41.871Z,20.86
2018-09-09T06:22:10.776Z,21.00
2018-09-09T06:24:39.801Z,21.29
2018-09-09T06:27:08.712Z,21.50
2018-09-09T06:29:37.736Z,21.54
2018-09-09T06:32:06.820Z,21.60
2018-09-09T06:34:36.224Z,21.92
2018-09-09T06:37:05.170Z,21.58
2018-09-09T06:39:34.153Z,21.18
2018-09-09T06:42:03.112Z,20.69
2018-09-09T06:44:32.016Z,20.80
2018-09-09T06:47:01.076Z,20.39
2018-09-09T06:49:30.249Z,20.42
2018-09-09T06:51:59.592Z,20.72
2018-09-09T06:54:28.816Z,20.86
2018-09-09T06:56:57.775Z,20.72
2018-09-09T06:59:27.528Z,20.75
2018-09-09T07:01:56.600Z,20.81
2018-09-09T07:04:25.593Z,21.10
2018-09-09T07:06:54.556Z,21.10
2018-09-09T07:09:23.666Z,20.63
2018-09-09T07:11:52.705Z,20.92
2018-09-09T07:14:21.692Z,21.27
2018-09-09T07:16:50.627Z,21.21
2018-09-09T07:19:19.650Z,21.19
2018-09-09T07:21:48.641Z,21.09
2018-09-09T07:24:17.646Z,21.00
2018-09-09T07:26:46.644Z,21.47
2018-09-09T07:29:16.381Z,21.72
2018-09-09T07:31:45.323Z,21.80
2018-09-09T07:34:14.507Z,21.30
2018-09-09T07:36:43.461Z,21.36
2018-09-09T07:39:12.462Z,21.51
2018-09-09T07:41:41.420Z,21.70
2018-09-09T07:44:10.362Z,21.76
2018-09-09T07:46:39.388Z,22.07
2018-09-09T07:49:08.381Z,21.89
2018-09-09T07:51:37.320Z,21.81
2018-09-09T07:54:06.268Z,21.80
2018-09-09T07:56:35.255Z,21.44
2018-09-09T07:59:04.307Z,21.36
2018-09-09T08:01:33.314Z,21.49
2018-09-09T08:04:02.296Z,21.66
2018-09-09T08:06:31.223Z,21.69
2018-09-09T08:09:00.226Z,22.04
2018-09-09T08:11:34.228Z,22.16
2018-09-09T08:14:03.291Z,22.47
2018-09-09T08:16:32.348Z,22.09
2018-09-09T08:19:01.523Z,22.30
2018-09-09T08:21:30.476Z,22.51
2018-09-09T08:23:59.885Z,22.60
2018-09-09T08:26:28.844Z,22.07
2018-09-09T08:28:57.792Z,22.45
2018-09-09T08:31:26.913Z,22.45
2018-09-09T08:33:55.910Z,22.22
2018-09-09T08:36:24.838Z,22.24
2018-09-09T08:38:53.764Z,22.47
2018-09-09T08:41:22.732Z,22.60
2018-09-09T08:43:51.773Z,22.62
2018-09-09T08:46:20.704Z,22.59
2018-09-09T08:48:49.744Z,22.59
2018-09-09T08:51:18.704Z,22.39
2018-09-09T08:53:47.683Z,22.59
2018-09-09T08:56:16.867Z,22.77
2018-09-09T08:58:45.876Z,22.43
2018-09-09T09:01:14.841Z,22.74
2018-09-09T09:03:43.816Z,22.96
2018-09-09T09:06:12.937Z,23.08
2018-09-09T09:08:41.930Z,23.30
2018-09-09T09:11:10.890Z,23.44
2018-09-09T09:13:39.871Z,23.39
2018-09-09T09:16:08.797Z,23.63
2018-09-09T09:18:37.809Z,23.53
2018-09-09T09:21:06.752Z,23.22
2018-09-09T09:23:35.850Z,23.23
2018-09-09T09:26:04.813Z,23.04
2018-09-09T09:28:34.653Z,23.19
2018-09-09T09:31:03.588Z,23.35
2018-09-09T09:33:32.580Z,23.49
2018-09-09T09:36:01.677Z,23.56
2018-09-09T09:38:30.680Z,23.62
2018-09-09T09:40:59.665Z,23.77
2018-09-09T09:43:28.576Z,23.63
2018-09-09T09:45:57.508Z,23.43
2018-09-09T09:48:26.478Z,23.26
2018-09-09T09:50:55.427Z,23.32
2018-09-09T09:53:24.402Z,23.46
2018-09-09T09:55:53.932Z,23.52
2018-09-09T09:58:22.940Z,23.65
2018-09-09T10:00:56.966Z,23.74
2018-09-09T10:03:26.088Z,23.87
2018-09-09T10:05:55.027Z,24.07
2018-09-09T10:08:24.092Z,24.14
2018-09-09T10:10:53.115Z,24.11
2018-09-09T10:13:22.118Z,24.00
2018-09-09T10:15:51.058Z,24.01
2018-09-09T10:18:19.976Z,24.11
2018-09-09T10:20:48.966Z,24.08
2018-09-09T10:23:18.539Z,23.92
2018-09-09T10:25:47.460Z,24.05
2018-09-09T10:28:16.445Z,24.02
2018-09-09T10:30:45.413Z,23.94
2018-09-09T10:33:14.387Z,24.16
2018-09-09T10:35:43.377Z,24.16
2018-09-09T10:38:12.553Z,24.12
2018-09-09T10:40:41.558Z,24.30
2018-09-09T10:43:10.495Z,24.57
2018-09-09T10:45:39.553Z,24.80
2018-09-09T10:48:08.568Z,24.48
2018-09-09T10:50:37.502Z,24.66
2018-09-09T10:53:06.591Z,24.64
2018-09-09T10:55:35.538Z,24.59
2018-09-09T10:58:04.601Z,24.63
2018-09-09T11:00:34.729Z,24.78
2018-09-09T11:03:03.840Z,24.74
2018-09-09T11:05:32.768Z,24.71
2018-09-09T11:08:01.690Z,24.76
2018-09-09T11:10:30.647Z,24.57
2018-09-09T11:12:59.767Z,24.79
2018-09-09T11:15:28.668Z,24.70
2018-09-09T11:17:57.603Z,24.53
2018-09-09T11:20:26.553Z,24.30
2018-09-09T11:22:55.480Z,24.14
2018-09-09T11:25:24.688Z,23.99
2018-09-09T11:27:53.671Z,23.72
2018-09-09T11:30:22.679Z,23.38
2018-09-09T11:32:51.727Z,23.42
2018-09-09T11:35:20.665Z,23.44
2018-09-09T11:37:49.624Z,23.43
2018-09-09T11:40:18.613Z,23.37
2018-09-09T11:42:47.630Z,23.41
2018-09-09T11:45:16.608Z,23.32
2018-09-09T11:47:45.650Z,23.40
2018-09-09T11:50:15.456Z,23.46
2018-09-09T11:52:44.500Z,23.64
2018-09-09T11:55:13.644Z,23.48
2018-09-09T11:57:42.655Z,23.47
2018-09-09T12:00:11.673Z,23.47
2018-09-09T12:02:40.668Z,23.45
2018-09-09T12:05:09.681Z,23.53
2018-09-09T12:07:38.687Z,23.56
2018-09-09T12:10:07.704Z,23.66
2018-09-09T12:12:36.805Z,23.70
2018-09-09T12:15:05.960Z,23.40
2018-09-09T12:17:34.927Z,23.48
2018-09-09T12:20:03.914Z,23.25
2018-09-09T12:22:32.903Z,23.50
2018-09-09T12:25:01.832Z,23.59
2018-09-09T12:27:30.848Z,23.80
2018-09-09T12:29:59.873Z,23.92
2018-09-09T12:32:28.914Z,23.96
2018-09-09T12:34:57.990Z,23.70
2018-09-09T12:37:26.939Z,23.65
2018-09-09T12:39:55.980Z,23.65
2018-09-09T12:42:24.923Z,23.70
2018-09-09T12:44:58.933Z,23.14
2018-09-09T12:47:33.140Z,23.21
2018-09-09T12:50:02.105Z,23.18
2018-09-09T12:52:31.083Z,23.32
2018-09-09T12:55:00.064Z,23.43
2018-09-09T12:57:29.000Z,23.53
2018-09-09T12:59:57.991Z,23.36
2018-09-09T13:02:26.919Z,23.53
2018-09-09T13:04:55.861Z,23.70
2018-09-09T13:07:24.966Z,23.73
2018-09-09T13:09:53.867Z,23.73
2018-09-09T13:12:22.835Z,23.45
2018-09-09T13:14:51.772Z,23.62
2018-09-09T13:17:20.748Z,23.77
2018-09-09T13:19:49.650Z,23.75
2018-09-09T13:22:18.631Z,23.76
2018-09-09T13:24:47.551Z,23.85
2018-09-09T13:27:16.560Z,23.55
2018-09-09T13:29:45.512Z,23.43
2018-09-09T13:32:14.540Z,23.01
2018-09-09T13:34:43.440Z,23.01
2018-09-09T13:37:12.544Z,22.92
2018-09-09T13:39:41.467Z,22.99
2018-09-09T13:42:10.485Z,22.84
2018-09-09T13:44:39.911Z,22.84
2018-09-09T13:47:09.249Z,23.11
2018-09-09T13:49:38.722Z,23.06
2018-09-09T13:52:07.906Z,23.28
2018-09-09T13:54:36.945Z,23.24
2018-09-09T13:57:05.969Z,23.36
2018-09-09T13:59:34.872Z,23.39
2018-09-09T14:02:03.864Z,23.41
2018-09-09T14:04:32.824Z,23.55
2018-09-09T14:07:01.814Z,23.66
2018-09-09T14:09:31.003Z,23.64
2018-09-09T14:11:59.939Z,23.82
2018-09-09T14:14:28.851Z,23.96
2018-09-09T14:16:57.811Z,23.98
2018-09-09T14:19:26.786Z,24.03
2018-09-09T14:21:55.760Z,24.14
2018-09-09T14:24:24.770Z,24.20
2018-09-09T14:26:53.696Z,24.25
2018-09-09T14:29:22.682Z,24.29
2018-09-09T14:31:51.650Z,24.00
2018-09-09T14:34:20.648Z,23.92
2018-09-09T14:36:49.689Z,23.87
2018-09-09T14:39:18.598Z,23.92
2018-09-09T14:41:47.864Z,23.96
2018-09-09T14:44:17.112Z,23.88
2018-09-09T14:46:46.209Z,23.77
2018-09-09T14:49:15.515Z,23.77
2018-09-09T14:51:44.481Z,23.59
2018-09-09T14:54:14.115Z,23.51
2018-09-09T14:56:43.566Z,23.43
2018-09-09T14:59:13.281Z,23.57
2018-09-09T15:01:44.092Z,23.61
2018-09-09T15:04:13.064Z,23.72
2018-09-09T15:06:42.111Z,23.74
2018-09-09T15:09:12.144Z,23.68
2018-09-09T15:11:41.356Z,23.66
2018-09-09T15:14:10.530Z,23.78
2018-09-09T15:16:39.650Z,23.80
2018-09-09T15:19:08.564Z,23.86
2018-09-09T15:21:37.580Z,23.90
2018-09-09T15:24:06.532Z,24.04
2018-09-09T15:26:35.661Z,24.15
2018-09-09T15:29:04.657Z,23.97
2018-09-09T15:31:33.671Z,23.93
2018-09-09T15:34:02.725Z,23.89
2018-09-09T15:36:31.761Z,23.91
2018-09-09T15:39:00.833Z,23.90
2018-09-09T15:41:29.820Z,23.79
2018-09-09T15:43:58.803Z,23.87
2018-09-09T15:46:27.836Z,23.93
2018-09-09T15:48:56.810Z,23.62
2018-09-09T15:51:25.840Z,23.70
2018-09-09T15:53:54.816Z,23.59
2018-09-09T15:56:23.940Z,23.65
2018-09-09T15:58:53.006Z,23.71
2018-09-09T16:01:22.796Z,23.60
2018-09-09T16:03:52.931Z,23.49
2018-09-09T16:06:22.751Z,23.26
2018-09-09T16:08:51.727Z,23.28
2018-09-09T16:11:20.706Z,23.24
2018-09-09T16:13:49.646Z,23.16
2018-09-09T16:16:18.640Z,23.11
2018-09-09T16:18:47.727Z,23.09
2018-09-09T16:21:16.650Z,23.18
2018-09-09T16:23:45.612Z,23.03
2018-09-09T16:26:14.595Z,22.93
2018-09-09T16:28:43.503Z,22.90
2018-09-09T16:31:12.421Z,22.91
2018-09-09T16:33:41.325Z,22.99
2018-09-09T16:36:10.292Z,23.08
2018-09-09T16:38:39.239Z,22.98
2018-09-09T16:41:08.270Z,22.78
2018-09-09T16:43:37.257Z,22.67
2018-09-09T16:46:06.244Z,22.64
2018-09-09T16:48:35.276Z,22.73
2018-09-09T16:51:04.227Z,22.60
2018-09-09T16:53:33.135Z,22.76
2018-09-09T16:56:02.126Z,22.89
2018-09-09T16:58:31.048Z,23.04
2018-09-09T17:01:00.128Z,23.07
2018-09-09T17:03:29.076Z,22.89
2018-09-09T17:05:57.999Z,22.69
2018-09-09T17:08:26.907Z,22.62
2018-09-09T17:10:55.808Z,22.55
2018-09-09T17:13:24.697Z,22.72
2018-09-09T17:15:53.599Z,22.86
2018-09-09T17:18:22.605Z,22.85
2018-09-09T17:20:51.624Z,22.59
2018-09-09T17:23:20.598Z,22.75
2018-09-09T17:25:49.434Z,22.69
2018-09-09T17:28:18.266Z,22.62
2018-09-09T17:30:47.123Z,22.70
2018-09-09T17:33:15.981Z,22.75
2018-09-09T17:35:44.862Z,22.88
2018-09-09T17:38:13.671Z,22.83
2018-09-09T17:40:42.502Z,22.51
2018-09-09T17:43:11.351Z,22.34
2018-09-09T17:45:40.214Z,22.65
2018-09-09T17:48:09.040Z,22.59
2018-09-09T17:50:37.895Z,22.75
2018-09-09T17:53:06.735Z,22.85
2018-09-09T17:55:35.540Z,22.90
2018-09-09T17:58:04.431Z,22.50
2018-09-09T18:00:33.291Z,22.70
2018-09-09T18:03:02.186Z,22.74
2018-09-09T18:05:31.072Z,22.78
2018-09-09T18:08:00.258Z,22.69
2018-09-09T18:10:29.139Z,22.79
2018-09-09T18:12:58.119Z,22.80
2018-09-09T18:15:27.058Z,22.83
2018-09-09T18:17:55.903Z,22.80
2018-09-09T18:20:24.906Z,22.69
2018-09-09T18:22:53.812Z,22.74
2018-09-09T18:25:22.715Z,22.66
2018-09-09T18:27:51.550Z,22.71
2018-09-09T18:30:20.432Z,22.62
2018-09-09T18:32:49.416Z,22.70
2018-09-09T18:35:18.240Z,22.74
2018-09-09T18:37:47.508Z,22.63
2018-09-09T18:40:16.336Z,22.60
2018-09-09T18:42:45.307Z,22.13
2018-09-09T18:45:14.148Z,22.31
2018-09-09T18:47:42.964Z,22.12
2018-09-09T18:50:11.816Z,22.27
2018-09-09T18:52:47.327Z,22.21
2018-09-09T18:55:19.575Z,22.23
2018-09-09T18:57:48.989Z,22.20
2018-09-09T19:00:18.391Z,22.17
2018-09-09T19:02:47.262Z,22.15
2018-09-09T19:05:17.504Z,22.12
2018-09-09T19:07:46.512Z,22.12
2018-09-09T19:10:15.784Z,22.12
2018-09-09T19:12:44.651Z,21.48
2018-09-09T19:15:13.500Z,21.19
2018-09-09T19:17:43.326Z,21.29
2018-09-09T19:20:12.199Z,20.83
2018-09-09T19:22:41.038Z,21.19
2018-09-09T19:25:09.986Z,21.36
2018-09-09T19:27:38.887Z,21.41
2018-09-09T19:30:07.794Z,21.48
2018-09-09T19:32:36.685Z,21.54
2018-09-09T19:35:05.708Z,21.74
2018-09-09T19:37:34.539Z,21.96
2018-09-09T19:40:03.457Z,22.21
2018-09-09T19:42:35.652Z,22.28
2018-09-09T19:45:05.727Z,22.25
2018-09-09T19:47:35.036Z,22.31
2018-09-09T19:50:05.015Z,22.48
2018-09-09T19:52:34.090Z,22.48
2018-09-09T19:55:02.946Z,22.39
2018-09-09T19:57:31.834Z,22.31
2018-09-09T20:00:00.664Z,22.24
2018-09-09T20:02:29.658Z,22.22
2018-09-09T20:04:58.547Z,22.26
2018-09-09T20:07:27.401Z,22.26
2018-09-09T20:09:56.326Z,22.32
2018-09-09T20:12:25.170Z,22.24
2018-09-09T20:14:54.040Z,22.18
2018-09-09T20:17:22.858Z,21.96
2018-09-09T20:19:51.699Z,21.95
2018-09-09T20:22:20.523Z,21.81
2018-09-09T20:24:49.369Z,21.50
2018-09-09T20:27:18.298Z,21.65
2018-09-09T20:29:47.197Z,21.86
2018-09-09T20:32:16.100Z,22.06
2018-09-09T20:34:44.920Z,22.00
2018-09-09T20:37:13.794Z,22.09
2018-09-09T20:39:42.679Z,22.19
2018-09-09T20:42:11.508Z,22.04
2018-09-09T20:44:40.381Z,21.83
2018-09-09T20:47:09.206Z,21.90
2018-09-09T20:49:38.067Z,21.79
2018-09-09T20:52:07.031Z,21.72
2018-09-09T20:54:35.843Z,21.86
2018-09-09T20:57:04.686Z,21.75
2018-09-09T20:59:33.518Z,21.69
2018-09-09T21:02:02.367Z,21.27
2018-09-09T21:04:31.214Z,21.27
2018-09-09T21:07:00.031Z,21.09
2018-09-09T21:09:28.870Z,21.25
2018-09-09T21:11:57.725Z,21.31
2018-09-09T21:14:26.596Z,20.87
2018-09-09T21:16:55.443Z,20.57
2018-09-09T21:19:24.325Z,20.67
2018-09-09T21:21:53.151Z,21.25
2018-09-09T21:24:21.988Z,21.24
2018-09-09T21:26:50.829Z,21.10
2018-09-09T21:29:19.646Z,20.63
2018-09-09T21:31:48.522Z,20.49
2018-09-09T21:34:17.334Z,20.59
2018-09-09T21:36:46.226Z,20.19
2018-09-09T21:39:15.069Z,19.85
2018-09-09T21:41:43.887Z,19.63
2018-09-09T21:44:12.839Z,19.76
2018-09-09T21:46:41.663Z,19.72
2018-09-09T21:49:10.553Z,20.12
2018-09-09T21:51:39.412Z,20.38
2018-09-09T21:54:08.347Z,20.69
2018-09-09T21:56:37.173Z,20.77
2018-09-09T21:59:06.127Z,20.76
2018-09-09T22:01:40.031Z,20.76
2018-09-09T22:04:08.868Z,20.78
2018-09-09T22:06:37.708Z,20.84
2018-09-09T22:09:08.894Z,20.88
2018-09-09T22:11:38.480Z,20.91
2018-09-09T22:14:07.407Z,20.97
2018-09-09T22:16:36.331Z,20.97
2018-09-09T22:19:05.176Z,20.87
2018-09-09T22:21:34.008Z,20.85
2018-09-09T22:24:03.026Z,20.96
2018-09-09T22:26:31.913Z,21.13
2018-09-09T22:29:00.716Z,21.25
2018-09-09T22:31:29.530Z,21.29
2018-09-09T22:33:58.848Z,21.24
2018-09-09T22:36:27.742Z,21.25
2018-09-09T22:38:56.623Z,21.20
2018-09-09T22:41:25.619Z,21.11
2018-09-09T22:43:54.992Z,21.03
2018-09-09T22:46:23.870Z,20.90
2018-09-09T22:48:52.826Z,20.87
2018-09-09T22:51:21.656Z,20.81
2018-09-09T22:53:50.491Z,20.72
2018-09-09T22:56:19.610Z,20.60
2018-09-09T22:58:48.415Z,20.46
2018-09-09T23:01:17.238Z,19.88
2018-09-09T23:03:46.047Z,20.09
2018-09-09T23:06:14.986Z,20.17
2018-09-09T23:08:44.094Z,20.22
2018-09-09T23:11:13.103Z,20.17
2018-09-09T23:13:42.306Z,20.16
2018-09-09T23:16:11.146Z,20.12
2018-09-09T23:18:40.007Z,20.10
2018-09-09T23:21:08.881Z,20.09
2018-09-09T23:23:37.705Z,20.05
2018-09-09T23:26:06.631Z,20.08
2018-09-09T23:28:35.666Z,20.02
2018-09-09T23:31:04.502Z,20.06
2018-09-09T23:33:33.332Z,20.08
2018-09-09T23:36:02.189Z,20.09
2018-09-09T23:38:31.023Z,20.09
2018-09-09T23:40:59.918Z,20.03
2018-09-09T23:43:28.717Z,20.04
2018-09-09T23:45:57.545Z,20.04
2018-09-09T23:48:26.366Z,20.02
2018-09-09T23:50:55.261Z,20.14
2018-09-09T23:53:24.109Z,20.20
2018-09-09T23:55:52.963Z,20.18
2018-09-09T23:58:21.849Z,20.15
